Portada
METAR-TAF:

METAR-TAF

Aeroports :

Quimper, França

latitud: 47-58N, longitud: 004-10W, altitud: 92 m

Observació

L'informe es va fer fa 36 minuts, a les 03:30 UTC
Vent 14 kt del Oest/Sud-Oest
Temperatura 10°C
Humitat 100%
Pressió 1028 hPa
Visibilitat: 3100 m
Cel cobert a una alçada de 300 ft
plugim, boirina

METAR: LFRQ 230330Z AUTO 24014KT 3100 -DZ BR OVC003 10/10 Q1028

Hora: 05:06 (04:06 UTC)

Pronòstic

L'informe es va fer fa 7 hores i 38 minuts, a les 20:28 UTC
Pronòstic vàlid del 22 a les 20 UTC al 23 a les 18 UTC
Vent 16 kt del Oest/Sud-Oest
Visibilitat: 6000 m
Cel cobert a una alçada de 800 ft
Temporalment
l' 22 a les 20 UTC al 23 a les 18 UTC
Visibilitat: 1500 m
Cel cobert a una alçada de 200 ft
pluja, plugim
Temporalment
l' 23 a les 02 UTC al 23 a les 09 UTC
Vent 20 kt del Sud-Oest amb ràfegues de 30 kt

TAF: LFRQ 222028Z 2220/2318 25016KT 6000 OVC008 TEMPO 2220/2318 1500 -RADZ OVC002 TEMPO 2302/2309 23020G30KT

Observacions i pronòstics meteorològics de més de 4000 aeroports (METAR i TAF).

Les estacions disponibles són els punts grocs i vermells al mapa.

Posi el ratolí al punt desitjat per veure el nom de l'estació.

Feu clic per veure les observacions i els pronòstics meteorològics.

Per canviar el mapa: feu clic els botons verds amb una creu de color negre per apropar; al botó verd amb un guió per allunyar la imatge; o en les fletxes verdes per a mapes adjacents.


METAR-TAF: